ANZ69 NZAA-NZCH
Flight info
| Callsign | ANZ69 |
|---|---|
| Flight time | 1h 4m |
| Altitude | 38000 |
| Route | IGBAT H384 NP H252 NS Y288 IPRAK |
| Aircraft | B789/H-SDE1E2E3FGHIJ2J3J4J5M1RWXYZ/LB1D1 |
Departure
| Time | 2026-05-04 07:38 |
|---|---|
| Airport | Auckland International Airport (NZAA) |
Arrival
| Time | 2026-05-04 08:42 |
|---|---|
| Airport | Christchurch International Airport (NZCH) |
| Time | Latitude | Longitude | Altitude | Speed | Heading |
|---|---|---|---|---|---|
| 2026-05-04 07:12 | -37.00721 | 174.78123 | 31 ft | 0 kts | 109° |
| 2026-05-04 07:25 | -37.00721 | 174.78122 | 31 ft | 2 kts | 109° |
| 2026-05-04 07:26 | -37.00698 | 174.78035 | 29 ft | 0 kts | 203° |
| 2026-05-04 07:30 | -37.00699 | 174.78035 | 29 ft | 1 kts | 203° |
| 2026-05-04 07:30 | -37.00728 | 174.78021 | 31 ft | 6 kts | 199° |
| 2026-05-04 07:30 | -37.00776 | 174.78010 | 31 ft | 8 kts | 177° |
| 2026-05-04 07:30 | -37.00837 | 174.78029 | 31 ft | 10 kts | 161° |
| 2026-05-04 07:31 | -37.00912 | 174.78062 | 31 ft | 13 kts | 161° |
| 2026-05-04 07:31 | -37.01000 | 174.78101 | 31 ft | 14 kts | 165° |
| 2026-05-04 07:33 | -37.01303 | 174.77576 | 31 ft | 25 kts | 251° |
| 2026-05-04 07:33 | -37.01361 | 174.77362 | 31 ft | 26 kts | 251° |
| 2026-05-04 07:33 | -37.01425 | 174.77143 | 31 ft | 23 kts | 238° |
| 2026-05-04 07:33 | -37.01485 | 174.77104 | 31 ft | 0 kts | 191° |
| 2026-05-04 07:35 | -37.01493 | 174.77102 | 31 ft | 3 kts | 191° |
| 2026-05-04 07:35 | -37.01526 | 174.77093 | 31 ft | 7 kts | 191° |
| 2026-05-04 07:35 | -37.01578 | 174.77086 | 31 ft | 8 kts | 181° |
| 2026-05-04 07:35 | -37.01616 | 174.77098 | 31 ft | 3 kts | 142° |
| 2026-05-04 07:36 | -37.01622 | 174.77116 | 31 ft | 1 kts | 99° |
| 2026-05-04 07:36 | -37.01620 | 174.77124 | 31 ft | 2 kts | 71° |
| 2026-05-04 07:38 | -37.00960 | 174.83483 | 2347 ft | 199 kts | 117° |
| 2026-05-04 07:38 | -37.01919 | 174.84924 | 2774 ft | 233 kts | 137° |
| 2026-05-04 07:38 | -37.03376 | 174.86035 | 3396 ft | 258 kts | 156° |
| 2026-05-04 07:38 | -37.05140 | 174.86550 | 4535 ft | 263 kts | 174° |
| 2026-05-04 07:39 | -37.07000 | 174.86408 | 5582 ft | 272 kts | 191° |
| 2026-05-04 07:39 | -37.08779 | 174.85604 | 6637 ft | 279 kts | 206° |
| 2026-05-04 07:39 | -37.10425 | 174.84200 | 7566 ft | 293 kts | 217° |
| 2026-05-04 07:39 | -37.12052 | 174.82505 | 8044 ft | 320 kts | 219° |
| 2026-05-04 07:40 | -37.13815 | 174.80589 | 8503 ft | 345 kts | 220° |
| 2026-05-04 07:40 | -37.15625 | 174.78600 | 9555 ft | 348 kts | 220° |
| 2026-05-04 07:40 | -37.17467 | 174.76576 | 10527 ft | 354 kts | 220° |
| 2026-05-04 07:40 | -37.19317 | 174.74544 | 11418 ft | 358 kts | 220° |
| 2026-05-04 07:41 | -37.21192 | 174.72492 | 12304 ft | 362 kts | 220° |
| 2026-05-04 07:41 | -37.23118 | 174.70397 | 13200 ft | 367 kts | 220° |
| 2026-05-04 07:41 | -37.25071 | 174.68283 | 14101 ft | 371 kts | 220° |
| 2026-05-04 07:41 | -37.27032 | 174.66168 | 14896 ft | 375 kts | 220° |
| 2026-05-04 07:42 | -37.29007 | 174.64047 | 15652 ft | 379 kts | 220° |
| 2026-05-04 07:42 | -37.31039 | 174.61869 | 16391 ft | 384 kts | 220° |
| 2026-05-04 07:42 | -37.33065 | 174.59697 | 17101 ft | 388 kts | 220° |
| 2026-05-04 07:42 | -37.35135 | 174.57480 | 17806 ft | 392 kts | 220° |
| 2026-05-04 07:43 | -37.37378 | 174.55527 | 18452 ft | 396 kts | 208° |
| 2026-05-04 07:43 | -37.39928 | 174.54159 | 19093 ft | 399 kts | 197° |
| 2026-05-04 07:43 | -37.42598 | 174.53243 | 19670 ft | 402 kts | 192° |
| 2026-05-04 07:43 | -37.45348 | 174.52505 | 20259 ft | 405 kts | 192° |
| 2026-05-04 07:44 | -37.48079 | 174.51678 | 20840 ft | 408 kts | 194° |
| 2026-05-04 07:44 | -37.50847 | 174.50727 | 21401 ft | 411 kts | 194° |
| 2026-05-04 07:44 | -37.53624 | 174.49800 | 21956 ft | 414 kts | 193° |
| 2026-05-04 07:44 | -37.56403 | 174.48928 | 22482 ft | 416 kts | 193° |
| 2026-05-04 07:45 | -37.59244 | 174.48032 | 23035 ft | 419 kts | 194° |
| 2026-05-04 07:45 | -37.62056 | 174.47117 | 23548 ft | 422 kts | 194° |
| 2026-05-04 07:45 | -37.64912 | 174.46183 | 24052 ft | 424 kts | 194° |
| 2026-05-04 07:45 | -37.67797 | 174.45253 | 24475 ft | 427 kts | 194° |
| 2026-05-04 07:46 | -37.70669 | 174.44330 | 24876 ft | 429 kts | 194° |
| 2026-05-04 07:46 | -37.73584 | 174.43387 | 25263 ft | 432 kts | 194° |
| 2026-05-04 07:46 | -37.76477 | 174.42447 | 25635 ft | 434 kts | 194° |
| 2026-05-04 07:46 | -37.79423 | 174.41491 | 26017 ft | 436 kts | 194° |
| 2026-05-04 07:47 | -37.82379 | 174.40533 | 26393 ft | 438 kts | 194° |
| 2026-05-04 07:47 | -37.85318 | 174.39579 | 26777 ft | 441 kts | 194° |
| 2026-05-04 07:47 | -37.88310 | 174.38606 | 27160 ft | 443 kts | 194° |
| 2026-05-04 07:49 | -38.09568 | 174.31674 | 29875 ft | 460 kts | 194° |
| 2026-05-04 07:49 | -38.12711 | 174.30645 | 30267 ft | 463 kts | 194° |
| 2026-05-04 07:49 | -38.15813 | 174.29629 | 30648 ft | 465 kts | 194° |
| 2026-05-04 07:50 | -38.18966 | 174.28596 | 30985 ft | 468 kts | 194° |
| 2026-05-04 07:50 | -38.22100 | 174.27567 | 31337 ft | 470 kts | 194° |
| 2026-05-04 07:50 | -38.25297 | 174.26518 | 31677 ft | 472 kts | 194° |
| 2026-05-04 07:50 | -38.28454 | 174.25480 | 32015 ft | 474 kts | 194° |
| 2026-05-04 07:51 | -38.30583 | 174.24779 | 32251 ft | 476 kts | 194° |
| 2026-05-04 07:51 | -38.34910 | 174.23355 | 32726 ft | 479 kts | 194° |
| 2026-05-04 07:51 | -38.38113 | 174.22299 | 33059 ft | 481 kts | 194° |
| 2026-05-04 07:51 | -38.41370 | 174.21224 | 33425 ft | 483 kts | 194° |
| 2026-05-04 07:52 | -38.44601 | 174.20157 | 33748 ft | 485 kts | 194° |
| 2026-05-04 07:52 | -38.47893 | 174.19070 | 34239 ft | 484 kts | 195° |
| 2026-05-04 07:52 | -38.51115 | 174.18004 | 34728 ft | 482 kts | 195° |
| 2026-05-04 07:52 | -38.53272 | 174.17289 | 34988 ft | 481 kts | 195° |
| 2026-05-04 07:53 | -38.56524 | 174.16212 | 35361 ft | 481 kts | 195° |
| 2026-05-04 07:54 | -38.79130 | 174.08694 | 37948 ft | 478 kts | 195° |
| 2026-05-04 07:55 | -38.82355 | 174.07617 | 38286 ft | 478 kts | 195° |
| 2026-05-04 07:55 | -38.85546 | 174.06550 | 38565 ft | 479 kts | 195° |
| 2026-05-04 07:55 | -38.92057 | 174.04372 | 38558 ft | 479 kts | 195° |
| 2026-05-04 07:56 | -38.98467 | 174.02223 | 38568 ft | 476 kts | 195° |
| 2026-05-04 07:56 | -39.04855 | 174.00077 | 38558 ft | 475 kts | 195° |
| 2026-05-04 07:57 | -39.11270 | 173.97919 | 38567 ft | 475 kts | 195° |
| 2026-05-04 07:57 | -39.17647 | 173.95714 | 38563 ft | 475 kts | 196° |
| 2026-05-04 07:58 | -39.24022 | 173.93495 | 38563 ft | 476 kts | 195° |
| 2026-05-04 07:58 | -39.30398 | 173.91285 | 38563 ft | 476 kts | 195° |
| 2026-05-04 07:59 | -39.36807 | 173.89048 | 38565 ft | 476 kts | 195° |
| 2026-05-04 07:59 | -39.43184 | 173.86825 | 38555 ft | 474 kts | 195° |
| 2026-05-04 08:00 | -39.49532 | 173.84604 | 38553 ft | 473 kts | 195° |
| 2026-05-04 08:02 | -39.75066 | 173.75694 | 38612 ft | 480 kts | 195° |
| 2026-05-04 08:02 | -39.78284 | 173.74620 | 38927 ft | 480 kts | 195° |
| 2026-05-04 08:02 | -39.81517 | 173.73517 | 39233 ft | 480 kts | 196° |
| 2026-05-04 08:03 | -39.84761 | 173.72399 | 39471 ft | 480 kts | 196° |
| 2026-05-04 08:03 | -39.87976 | 173.71302 | 39706 ft | 480 kts | 196° |
| 2026-05-04 08:03 | -39.91229 | 173.70198 | 39947 ft | 480 kts | 196° |
| 2026-05-04 08:03 | -39.94439 | 173.69102 | 40174 ft | 481 kts | 196° |
| 2026-05-04 08:04 | -39.97677 | 173.67990 | 40411 ft | 481 kts | 196° |
| 2026-05-04 08:04 | -40.00936 | 173.66873 | 40539 ft | 483 kts | 196° |
| 2026-05-04 08:04 | -40.07459 | 173.64639 | 40536 ft | 482 kts | 196° |
| 2026-05-04 08:05 | -40.13896 | 173.62425 | 40531 ft | 478 kts | 196° |
| 2026-05-04 08:05 | -40.20311 | 173.60217 | 40534 ft | 477 kts | 197° |
| 2026-05-04 08:06 | -40.26724 | 173.58004 | 40527 ft | 476 kts | 197° |
| 2026-05-04 08:06 | -40.33123 | 173.55792 | 40521 ft | 477 kts | 197° |
| 2026-05-04 08:08 | -40.58868 | 173.46848 | 40524 ft | 477 kts | 196° |
| 2026-05-04 08:11 | -40.87631 | 173.36772 | 40522 ft | 476 kts | 196° |
| 2026-05-04 08:11 | -40.97228 | 173.33389 | 40526 ft | 477 kts | 196° |
| 2026-05-04 08:12 | -41.03665 | 173.31115 | 40537 ft | 477 kts | 196° |
| 2026-05-04 08:12 | -41.10060 | 173.28850 | 40536 ft | 477 kts | 196° |
| 2026-05-04 08:13 | -41.16443 | 173.26586 | 40530 ft | 476 kts | 196° |
| 2026-05-04 08:13 | -41.19639 | 173.25451 | 40363 ft | 472 kts | 196° |
| 2026-05-04 08:13 | -41.22824 | 173.24318 | 40006 ft | 473 kts | 195° |
| 2026-05-04 08:14 | -41.25982 | 173.23193 | 39695 ft | 472 kts | 195° |
| 2026-05-04 08:14 | -41.29183 | 173.22053 | 39371 ft | 471 kts | 195° |
| 2026-05-04 08:14 | -41.32308 | 173.20851 | 38995 ft | 471 kts | 197° |
| 2026-05-04 08:16 | -41.54447 | 173.12399 | 36150 ft | 471 kts | 196° |
| 2026-05-04 08:16 | -41.57592 | 173.11180 | 35855 ft | 469 kts | 196° |
| 2026-05-04 08:16 | -41.60686 | 173.09982 | 35589 ft | 467 kts | 196° |
| 2026-05-04 08:17 | -41.63808 | 173.08779 | 35316 ft | 465 kts | 196° |
| 2026-05-04 08:17 | -41.66915 | 173.07581 | 35063 ft | 463 kts | 196° |
| 2026-05-04 08:17 | -41.70017 | 173.06380 | 34804 ft | 461 kts | 196° |
| 2026-05-04 08:17 | -41.73072 | 173.05194 | 34553 ft | 459 kts | 196° |
| 2026-05-04 08:19 | -41.94208 | 172.96977 | 32755 ft | 446 kts | 196° |
| 2026-05-04 08:19 | -41.97191 | 172.95812 | 32513 ft | 444 kts | 196° |
| 2026-05-04 08:20 | -42.00165 | 172.94650 | 32278 ft | 443 kts | 196° |
| 2026-05-04 08:20 | -42.03098 | 172.93503 | 32041 ft | 441 kts | 196° |
| 2026-05-04 08:20 | -42.06055 | 172.92346 | 31816 ft | 440 kts | 196° |
| 2026-05-04 08:20 | -42.08970 | 172.91203 | 31588 ft | 438 kts | 196° |
| 2026-05-04 08:21 | -42.11901 | 172.90053 | 31187 ft | 435 kts | 196° |
| 2026-05-04 08:21 | -42.14767 | 172.88927 | 30565 ft | 429 kts | 196° |
| 2026-05-04 08:21 | -42.17635 | 172.87800 | 29923 ft | 425 kts | 196° |
| 2026-05-04 08:21 | -42.20438 | 172.86698 | 29326 ft | 421 kts | 196° |
| 2026-05-04 08:22 | -42.23258 | 172.85588 | 28723 ft | 417 kts | 196° |
| 2026-05-04 08:22 | -42.26009 | 172.84503 | 28142 ft | 414 kts | 196° |
| 2026-05-04 08:24 | -42.44837 | 172.77057 | 24214 ft | 392 kts | 196° |
| 2026-05-04 08:24 | -42.47423 | 172.76030 | 23633 ft | 389 kts | 196° |
| 2026-05-04 08:24 | -42.50021 | 172.74999 | 23100 ft | 385 kts | 196° |
| 2026-05-04 08:24 | -42.52597 | 172.73974 | 22565 ft | 385 kts | 197° |
| 2026-05-04 08:25 | -42.55145 | 172.72960 | 22037 ft | 385 kts | 197° |
| 2026-05-04 08:25 | -42.57714 | 172.71937 | 21516 ft | 381 kts | 197° |
| 2026-05-04 08:25 | -42.60226 | 172.70936 | 21006 ft | 376 kts | 197° |
| 2026-05-04 08:25 | -42.62746 | 172.69930 | 20493 ft | 374 kts | 197° |
| 2026-05-04 08:26 | -42.65246 | 172.68932 | 19981 ft | 374 kts | 197° |
| 2026-05-04 08:27 | -42.80204 | 172.62942 | 16427 ft | 358 kts | 198° |
| 2026-05-04 08:28 | -42.81857 | 172.62278 | 16096 ft | 353 kts | 198° |
| 2026-05-04 08:28 | -42.83312 | 172.61694 | 15793 ft | 349 kts | 198° |
| 2026-05-04 08:28 | -42.85041 | 172.60998 | 15434 ft | 345 kts | 198° |
| 2026-05-04 08:28 | -42.86942 | 172.60226 | 15064 ft | 343 kts | 198° |
| 2026-05-04 08:29 | -42.88485 | 172.59596 | 14777 ft | 343 kts | 198° |
| 2026-05-04 08:29 | -42.89483 | 172.59188 | 14579 ft | 343 kts | 198° |
| 2026-05-04 08:29 | -42.92038 | 172.58150 | 14040 ft | 341 kts | 198° |
| 2026-05-04 08:31 | -43.03552 | 172.53458 | 11773 ft | 328 kts | 198° |
| 2026-05-04 08:33 | -43.16062 | 172.48332 | 9254 ft | 289 kts | 198° |
| 2026-05-04 08:33 | -43.17903 | 172.47576 | 8887 ft | 278 kts | 198° |
| 2026-05-04 08:35 | -43.28993 | 172.43011 | 6711 ft | 264 kts | 198° |
| 2026-05-04 08:35 | -43.31355 | 172.42042 | 6237 ft | 263 kts | 198° |
| 2026-05-04 08:35 | -43.32478 | 172.41580 | 6010 ft | 260 kts | 198° |
| 2026-05-04 08:35 | -43.33950 | 172.40975 | 5721 ft | 255 kts | 198° |
| 2026-05-04 08:37 | -43.42576 | 172.38705 | 4059 ft | 234 kts | 178° |
| 2026-05-04 08:37 | -43.44175 | 172.38805 | 3763 ft | 228 kts | 178° |
| 2026-05-04 08:37 | -43.45702 | 172.38892 | 3465 ft | 218 kts | 178° |
| 2026-05-04 08:38 | -43.46850 | 172.38962 | 3241 ft | 211 kts | 178° |
| 2026-05-04 08:38 | -43.48089 | 172.39039 | 2999 ft | 204 kts | 177° |
| 2026-05-04 08:38 | -43.49330 | 172.39118 | 2755 ft | 199 kts | 177° |
| 2026-05-04 08:40 | -43.53590 | 172.46389 | 1269 ft | 147 kts | 78° |
| 2026-05-04 08:40 | -43.53248 | 172.47697 | 1071 ft | 144 kts | 64° |
| 2026-05-04 08:40 | -43.52741 | 172.48725 | 897 ft | 143 kts | 50° |
| 2026-05-04 08:41 | -43.52057 | 172.49582 | 735 ft | 143 kts | 38° |
| 2026-05-04 08:41 | -43.51280 | 172.50446 | 537 ft | 143 kts | 39° |
| 2026-05-04 08:41 | -43.50539 | 172.51303 | 359 ft | 142 kts | 39° |
| 2026-05-04 08:41 | -43.49795 | 172.52175 | 171 ft | 142 kts | 37° |
| 2026-05-04 08:42 | -43.49170 | 172.52895 | 121 ft | 75 kts | 40° |
| 2026-05-04 08:42 | -43.48958 | 172.53134 | 115 ft | 16 kts | 39° |
| 2026-05-04 08:42 | -43.48905 | 172.53195 | 116 ft | 21 kts | 41° |
| 2026-05-04 08:42 | -43.48737 | 172.53392 | 121 ft | 39 kts | 40° |
| 2026-05-04 08:43 | -43.48541 | 172.53622 | 121 ft | 36 kts | 40° |
| 2026-05-04 08:43 | -43.48457 | 172.53835 | 118 ft | 20 kts | 91° |
| 2026-05-04 08:43 | -43.48478 | 172.53991 | 111 ft | 17 kts | 113° |
| 2026-05-04 08:43 | -43.48528 | 172.54106 | 111 ft | 0 kts | 126° |